sensor_id;sensor_type;location;lat;lon;timestamp;P1;durP1;ratioP1;P2;durP2;ratioP2
74528;SDS011;63009;52.584;5.932;2023-02-28T00:00:08;6.63;;;2.05;;
74528;SDS011;63009;52.584;5.932;2023-02-28T00:02:38;8.73;;;2.80;;
74528;SDS011;63009;52.584;5.932;2023-02-28T00:05:08;7.68;;;2.45;;
74528;SDS011;63009;52.584;5.932;2023-02-28T00:07:34;9.57;;;3.42;;
74528;SDS011;63009;52.584;5.932;2023-02-28T00:10:00;7.93;;;2.63;;
74528;SDS011;63009;52.584;5.932;2023-02-28T00:12:25;9.10;;;2.92;;
74528;SDS011;63009;52.584;5.932;2023-02-28T00:14:51;8.20;;;2.65;;
74528;SDS011;63009;52.584;5.932;2023-02-28T00:17:17;8.00;;;2.70;;
74528;SDS011;63009;52.584;5.932;2023-02-28T00:19:47;7.45;;;2.75;;
74528;SDS011;63009;52.584;5.932;2023-02-28T00:22:13;9.95;;;3.13;;
74528;SDS011;63009;52.584;5.932;2023-02-28T00:24:39;9.05;;;3.20;;
74528;SDS011;63009;52.584;5.932;2023-02-28T00:27:04;8.73;;;2.67;;
74528;SDS011;63009;52.584;5.932;2023-02-28T00:29:30;8.57;;;4.23;;
74528;SDS011;63009;52.584;5.932;2023-02-28T00:31:55;8.80;;;2.93;;
74528;SDS011;63009;52.584;5.932;2023-02-28T00:34:20;8.13;;;2.57;;
74528;SDS011;63009;52.584;5.932;2023-02-28T00:36:46;8.15;;;2.83;;
74528;SDS011;63009;52.584;5.932;2023-02-28T00:39:13;9.07;;;3.25;;
74528;SDS011;63009;52.584;5.932;2023-02-28T00:41:39;8.63;;;2.90;;
74528;SDS011;63009;52.584;5.932;2023-02-28T00:44:04;12.13;;;3.07;;
74528;SDS011;63009;52.584;5.932;2023-02-28T00:46:30;10.67;;;2.83;;
74528;SDS011;63009;52.584;5.932;2023-02-28T00:48:55;7.30;;;2.80;;
74528;SDS011;63009;52.584;5.932;2023-02-28T00:51:20;10.85;;;3.25;;
74528;SDS011;63009;52.584;5.932;2023-02-28T00:53:46;10.43;;;2.83;;
74528;SDS011;63009;52.584;5.932;2023-02-28T00:56:11;9.63;;;3.90;;
74528;SDS011;63009;52.584;5.932;2023-02-28T00:58:36;7.50;;;2.73;;
74528;SDS011;63009;52.584;5.932;2023-02-28T01:01:02;7.38;;;2.83;;
74528;SDS011;63009;52.584;5.932;2023-02-28T01:03:27;9.25;;;3.08;;
74528;SDS011;63009;52.584;5.932;2023-02-28T01:05:52;7.30;;;3.20;;
74528;SDS011;63009;52.584;5.932;2023-02-28T01:08:18;8.40;;;2.92;;
74528;SDS011;63009;52.584;5.932;2023-02-28T01:10:43;10.50;;;3.28;;
74528;SDS011;63009;52.584;5.932;2023-02-28T01:13:09;7.03;;;3.03;;
74528;SDS011;63009;52.584;5.932;2023-02-28T01:15:35;9.80;;;2.85;;
74528;SDS011;63009;52.584;5.932;2023-02-28T01:18:00;8.55;;;3.03;;
74528;SDS011;63009;52.584;5.932;2023-02-28T01:20:26;10.93;;;3.63;;
74528;SDS011;63009;52.584;5.932;2023-02-28T01:22:51;8.68;;;3.45;;
74528;SDS011;63009;52.584;5.932;2023-02-28T01:25:16;7.97;;;3.00;;
74528;SDS011;63009;52.584;5.932;2023-02-28T01:27:42;10.25;;;3.97;;
74528;SDS011;63009;52.584;5.932;2023-02-28T01:30:07;8.77;;;2.70;;
74528;SDS011;63009;52.584;5.932;2023-02-28T01:32:33;14.13;;;4.18;;
74528;SDS011;63009;52.584;5.932;2023-02-28T01:34:59;9.93;;;2.95;;
74528;SDS011;63009;52.584;5.932;2023-02-28T01:37:24;9.97;;;3.23;;
74528;SDS011;63009;52.584;5.932;2023-02-28T01:39:49;9.97;;;3.60;;
74528;SDS011;63009;52.584;5.932;2023-02-28T01:42:14;11.47;;;3.57;;
74528;SDS011;63009;52.584;5.932;2023-02-28T01:47:47;8.63;;;3.20;;
74528;SDS011;63009;52.584;5.932;2023-02-28T01:50:17;10.35;;;3.17;;
74528;SDS011;63009;52.584;5.932;2023-02-28T01:52:45;10.32;;;3.22;;
74528;SDS011;63009;52.584;5.932;2023-02-28T01:55:12;8.32;;;3.10;;
74528;SDS011;63009;52.584;5.932;2023-02-28T01:57:43;7.72;;;2.90;;
74528;SDS011;63009;52.584;5.932;2023-02-28T02:00:15;9.85;;;2.65;;
74528;SDS011;63009;52.584;5.932;2023-02-28T02:02:43;8.90;;;2.40;;
74528;SDS011;63009;52.584;5.932;2023-02-28T02:05:19;9.50;;;3.05;;
74528;SDS011;63009;52.584;5.932;2023-02-28T02:07:54;10.57;;;2.80;;
74528;SDS011;63009;52.584;5.932;2023-02-28T02:13:20;8.23;;;2.88;;
74528;SDS011;63009;52.584;5.932;2023-02-28T02:16:16;8.90;;;2.95;;
74528;SDS011;63009;52.584;5.932;2023-02-28T02:21:41;9.00;;;2.80;;
74528;SDS011;63009;52.584;5.932;2023-02-28T02:33:03;8.75;;;3.25;;
74528;SDS011;63009;52.584;5.932;2023-02-28T02:35:56;8.88;;;3.22;;
74528;SDS011;63009;52.584;5.932;2023-02-28T02:38:46;7.82;;;2.78;;
74528;SDS011;63009;52.584;5.932;2023-02-28T02:43:53;12.43;;;5.05;;
74528;SDS011;63009;52.584;5.932;2023-02-28T02:46:28;9.25;;;3.78;;
74528;SDS011;63009;52.584;5.932;2023-02-28T02:48:57;10.60;;;3.85;;
74528;SDS011;63009;52.584;5.932;2023-02-28T02:51:27;8.57;;;3.30;;
74528;SDS011;63009;52.584;5.932;2023-02-28T02:54:05;10.68;;;3.67;;
74528;SDS011;63009;52.584;5.932;2023-02-28T02:56:35;9.38;;;3.30;;
74528;SDS011;63009;52.584;5.932;2023-02-28T02:59:05;10.82;;;4.25;;
74528;SDS011;63009;52.584;5.932;2023-02-28T03:01:34;11.05;;;4.82;;
74528;SDS011;63009;52.584;5.932;2023-02-28T03:04:03;10.00;;;4.47;;
74528;SDS011;63009;52.584;5.932;2023-02-28T03:06:32;8.98;;;3.78;;
74528;SDS011;63009;52.584;5.932;2023-02-28T03:08:58;10.57;;;3.70;;
74528;SDS011;63009;52.584;5.932;2023-02-28T03:11:24;9.80;;;4.00;;
74528;SDS011;63009;52.584;5.932;2023-02-28T03:14:05;10.80;;;3.58;;
74528;SDS011;63009;52.584;5.932;2023-02-28T03:19:28;10.52;;;3.97;;
74528;SDS011;63009;52.584;5.932;2023-02-28T03:25:05;9.60;;;3.78;;
74528;SDS011;63009;52.584;5.932;2023-02-28T03:27:43;10.80;;;3.53;;
74528;SDS011;63009;52.584;5.932;2023-02-28T03:30:27;10.07;;;3.72;;
74528;SDS011;63009;52.584;5.932;2023-02-28T03:33:19;12.25;;;4.10;;
74528;SDS011;63009;52.584;5.932;2023-02-28T03:35:59;8.15;;;4.00;;
74528;SDS011;63009;52.584;5.932;2023-02-28T03:38:38;9.57;;;4.18;;
74528;SDS011;63009;52.584;5.932;2023-02-28T03:41:10;11.48;;;4.68;;
74528;SDS011;63009;52.584;5.932;2023-02-28T03:43:55;11.25;;;4.15;;
74528;SDS011;63009;52.584;5.932;2023-02-28T03:46:25;11.10;;;5.03;;
74528;SDS011;63009;52.584;5.932;2023-02-28T03:49:02;11.90;;;4.93;;
74528;SDS011;63009;52.584;5.932;2023-02-28T03:51:33;13.23;;;4.65;;
74528;SDS011;63009;52.584;5.932;2023-02-28T03:54:02;11.73;;;4.75;;
74528;SDS011;63009;52.584;5.932;2023-02-28T03:56:37;13.10;;;5.55;;
74528;SDS011;63009;52.584;5.932;2023-02-28T03:59:10;14.25;;;5.75;;
74528;SDS011;63009;52.584;5.932;2023-02-28T04:01:43;13.48;;;5.90;;
74528;SDS011;63009;52.584;5.932;2023-02-28T04:04:10;16.65;;;5.97;;
74528;SDS011;63009;52.584;5.932;2023-02-28T04:06:37;13.65;;;6.35;;
74528;SDS011;63009;52.584;5.932;2023-02-28T04:09:03;14.48;;;5.97;;
74528;SDS011;63009;52.584;5.932;2023-02-28T04:11:40;13.80;;;6.53;;
74528;SDS011;63009;52.584;5.932;2023-02-28T04:14:08;14.15;;;6.68;;
74528;SDS011;63009;52.584;5.932;2023-02-28T04:16:36;15.02;;;6.88;;
74528;SDS011;63009;52.584;5.932;2023-02-28T04:19:04;15.73;;;6.78;;
74528;SDS011;63009;52.584;5.932;2023-02-28T04:21:38;14.95;;;6.80;;
74528;SDS011;63009;52.584;5.932;2023-02-28T04:24:05;18.08;;;7.22;;
74528;SDS011;63009;52.584;5.932;2023-02-28T04:26:32;12.90;;;6.47;;
74528;SDS011;63009;52.584;5.932;2023-02-28T04:28:59;15.13;;;7.32;;
74528;SDS011;63009;52.584;5.932;2023-02-28T04:31:25;16.63;;;7.63;;
74528;SDS011;63009;52.584;5.932;2023-02-28T04:33:51;16.08;;;6.80;;
74528;SDS011;63009;52.584;5.932;2023-02-28T04:36:16;15.47;;;7.17;;
74528;SDS011;63009;52.584;5.932;2023-02-28T04:38:45;14.43;;;7.57;;
74528;SDS011;63009;52.584;5.932;2023-02-28T04:41:14;15.93;;;7.07;;
74528;SDS011;63009;52.584;5.932;2023-02-28T04:43:40;19.77;;;7.70;;
74528;SDS011;63009;52.584;5.932;2023-02-28T04:46:05;16.80;;;7.60;;
74528;SDS011;63009;52.584;5.932;2023-02-28T04:48:32;16.00;;;7.47;;
74528;SDS011;63009;52.584;5.932;2023-02-28T04:51:03;17.33;;;7.60;;
74528;SDS011;63009;52.584;5.932;2023-02-28T04:53:30;17.80;;;7.55;;
74528;SDS011;63009;52.584;5.932;2023-02-28T04:55:56;16.52;;;7.50;;
74528;SDS011;63009;52.584;5.932;2023-02-28T04:58:22;16.50;;;7.70;;
74528;SDS011;63009;52.584;5.932;2023-02-28T05:00:49;15.85;;;7.72;;
74528;SDS011;63009;52.584;5.932;2023-02-28T05:03:14;17.02;;;7.95;;
74528;SDS011;63009;52.584;5.932;2023-02-28T05:05:40;17.53;;;7.60;;
74528;SDS011;63009;52.584;5.932;2023-02-28T05:08:05;21.85;;;9.60;;
74528;SDS011;63009;52.584;5.932;2023-02-28T05:10:30;12.33;;;5.53;;
74528;SDS011;63009;52.584;5.932;2023-02-28T05:12:56;10.90;;;4.68;;
74528;SDS011;63009;52.584;5.932;2023-02-28T05:15:22;9.90;;;4.10;;
74528;SDS011;63009;52.584;5.932;2023-02-28T05:17:47;11.85;;;3.92;;
74528;SDS011;63009;52.584;5.932;2023-02-28T05:20:12;11.48;;;4.32;;
74528;SDS011;63009;52.584;5.932;2023-02-28T05:22:41;10.40;;;4.63;;
74528;SDS011;63009;52.584;5.932;2023-02-28T05:25:06;10.80;;;4.53;;
74528;SDS011;63009;52.584;5.932;2023-02-28T05:27:38;10.63;;;4.50;;
74528;SDS011;63009;52.584;5.932;2023-02-28T05:30:04;9.77;;;3.83;;
74528;SDS011;63009;52.584;5.932;2023-02-28T05:32:31;11.10;;;4.60;;
74528;SDS011;63009;52.584;5.932;2023-02-28T05:34:56;11.05;;;4.78;;
74528;SDS011;63009;52.584;5.932;2023-02-28T05:37:21;12.03;;;5.23;;
74528;SDS011;63009;52.584;5.932;2023-02-28T05:39:47;10.10;;;4.68;;
74528;SDS011;63009;52.584;5.932;2023-02-28T05:42:12;9.32;;;4.35;;
74528;SDS011;63009;52.584;5.932;2023-02-28T05:44:38;9.52;;;3.83;;
74528;SDS011;63009;52.584;5.932;2023-02-28T05:47:03;11.60;;;5.03;;
74528;SDS011;63009;52.584;5.932;2023-02-28T05:49:28;10.68;;;5.55;;
74528;SDS011;63009;52.584;5.932;2023-02-28T05:51:54;9.63;;;4.65;;
74528;SDS011;63009;52.584;5.932;2023-02-28T05:54:19;12.87;;;5.43;;
74528;SDS011;63009;52.584;5.932;2023-02-28T05:56:44;11.23;;;4.72;;
74528;SDS011;63009;52.584;5.932;2023-02-28T05:59:10;9.10;;;3.95;;
74528;SDS011;63009;52.584;5.932;2023-02-28T06:01:41;9.82;;;3.47;;
74528;SDS011;63009;52.584;5.932;2023-02-28T06:04:12;10.15;;;3.85;;
74528;SDS011;63009;52.584;5.932;2023-02-28T06:06:39;8.18;;;3.85;;
74528;SDS011;63009;52.584;5.932;2023-02-28T06:09:05;9.23;;;3.35;;
74528;SDS011;63009;52.584;5.932;2023-02-28T06:11:30;9.45;;;3.95;;
74528;SDS011;63009;52.584;5.932;2023-02-28T06:13:56;12.40;;;4.18;;
74528;SDS011;63009;52.584;5.932;2023-02-28T06:16:24;8.52;;;3.20;;
74528;SDS011;63009;52.584;5.932;2023-02-28T06:18:51;8.80;;;3.40;;
74528;SDS011;63009;52.584;5.932;2023-02-28T06:21:17;8.25;;;3.13;;
74528;SDS011;63009;52.584;5.932;2023-02-28T06:23:43;8.50;;;3.20;;
74528;SDS011;63009;52.584;5.932;2023-02-28T06:26:08;8.65;;;3.72;;
74528;SDS011;63009;52.584;5.932;2023-02-28T06:28:34;8.35;;;3.53;;
74528;SDS011;63009;52.584;5.932;2023-02-28T06:30:59;8.87;;;3.63;;
74528;SDS011;63009;52.584;5.932;2023-02-28T06:33:24;8.60;;;3.23;;
74528;SDS011;63009;52.584;5.932;2023-02-28T06:35:50;8.45;;;3.47;;
74528;SDS011;63009;52.584;5.932;2023-02-28T06:38:16;8.70;;;3.38;;
74528;SDS011;63009;52.584;5.932;2023-02-28T06:40:43;8.45;;;3.83;;
74528;SDS011;63009;52.584;5.932;2023-02-28T06:43:08;9.10;;;3.50;;
74528;SDS011;63009;52.584;5.932;2023-02-28T06:45:36;9.52;;;3.40;;
74528;SDS011;63009;52.584;5.932;2023-02-28T06:48:02;8.30;;;3.93;;
74528;SDS011;63009;52.584;5.932;2023-02-28T06:50:27;7.78;;;3.80;;
74528;SDS011;63009;52.584;5.932;2023-02-28T06:52:54;8.48;;;3.80;;
74528;SDS011;63009;52.584;5.932;2023-02-28T06:55:20;8.70;;;3.83;;
74528;SDS011;63009;52.584;5.932;2023-02-28T06:57:45;11.37;;;4.70;;
74528;SDS011;63009;52.584;5.932;2023-02-28T07:00:11;8.13;;;3.63;;
74528;SDS011;63009;52.584;5.932;2023-02-28T07:02:36;10.30;;;4.00;;
74528;SDS011;63009;52.584;5.932;2023-02-28T07:05:02;8.48;;;4.32;;
74528;SDS011;63009;52.584;5.932;2023-02-28T07:07:28;12.00;;;4.28;;
74528;SDS011;63009;52.584;5.932;2023-02-28T07:09:54;8.65;;;3.80;;
74528;SDS011;63009;52.584;5.932;2023-02-28T07:12:19;10.17;;;3.93;;
74528;SDS011;63009;52.584;5.932;2023-02-28T07:14:44;9.47;;;4.00;;
74528;SDS011;63009;52.584;5.932;2023-02-28T07:17:10;9.93;;;4.27;;
74528;SDS011;63009;52.584;5.932;2023-02-28T07:19:37;9.20;;;4.28;;
74528;SDS011;63009;52.584;5.932;2023-02-28T07:22:05;8.80;;;3.65;;
74528;SDS011;63009;52.584;5.932;2023-02-28T07:24:31;9.95;;;3.95;;
74528;SDS011;63009;52.584;5.932;2023-02-28T07:26:56;9.85;;;3.92;;
74528;SDS011;63009;52.584;5.932;2023-02-28T07:29:22;10.10;;;4.50;;
74528;SDS011;63009;52.584;5.932;2023-02-28T07:31:47;11.97;;;4.80;;
74528;SDS011;63009;52.584;5.932;2023-02-28T07:34:13;11.25;;;4.65;;
74528;SDS011;63009;52.584;5.932;2023-02-28T07:36:38;10.02;;;4.82;;
74528;SDS011;63009;52.584;5.932;2023-02-28T07:39:04;10.60;;;5.55;;
74528;SDS011;63009;52.584;5.932;2023-02-28T07:41:29;10.20;;;4.27;;
74528;SDS011;63009;52.584;5.932;2023-02-28T07:43:57;11.95;;;4.72;;
74528;SDS011;63009;52.584;5.932;2023-02-28T07:46:24;13.73;;;4.75;;
74528;SDS011;63009;52.584;5.932;2023-02-28T07:48:50;10.93;;;5.00;;
74528;SDS011;63009;52.584;5.932;2023-02-28T07:51:15;11.10;;;4.75;;
74528;SDS011;63009;52.584;5.932;2023-02-28T07:53:41;10.88;;;4.70;;
74528;SDS011;63009;52.584;5.932;2023-02-28T07:56:06;9.53;;;4.80;;
74528;SDS011;63009;52.584;5.932;2023-02-28T07:58:32;11.18;;;4.70;;
74528;SDS011;63009;52.584;5.932;2023-02-28T08:00:57;10.52;;;4.60;;
74528;SDS011;63009;52.584;5.932;2023-02-28T08:03:30;12.00;;;5.30;;
74528;SDS011;63009;52.584;5.932;2023-02-28T08:05:55;13.23;;;4.63;;
74528;SDS011;63009;52.584;5.932;2023-02-28T08:08:20;9.57;;;4.50;;
74528;SDS011;63009;52.584;5.932;2023-02-28T08:10:45;9.93;;;5.17;;
74528;SDS011;63009;52.584;5.932;2023-02-28T08:13:11;9.70;;;4.60;;
74528;SDS011;63009;52.584;5.932;2023-02-28T08:15:36;12.93;;;5.95;;
74528;SDS011;63009;52.584;5.932;2023-02-28T08:18:01;9.57;;;4.50;;
74528;SDS011;63009;52.584;5.932;2023-02-28T08:20:27;9.73;;;4.88;;
74528;SDS011;63009;52.584;5.932;2023-02-28T08:22:53;10.60;;;6.50;;
74528;SDS011;63009;52.584;5.932;2023-02-28T08:25:18;12.48;;;5.50;;
74528;SDS011;63009;52.584;5.932;2023-02-28T08:27:44;11.07;;;5.65;;
74528;SDS011;63009;52.584;5.932;2023-02-28T08:30:10;11.85;;;5.13;;
74528;SDS011;63009;52.584;5.932;2023-02-28T08:32:36;11.38;;;6.30;;
74528;SDS011;63009;52.584;5.932;2023-02-28T08:35:01;11.93;;;6.43;;
74528;SDS011;63009;52.584;5.932;2023-02-28T08:37:28;12.65;;;5.10;;
74528;SDS011;63009;52.584;5.932;2023-02-28T08:39:53;12.43;;;6.00;;
74528;SDS011;63009;52.584;5.932;2023-02-28T08:42:18;12.63;;;5.43;;
74528;SDS011;63009;52.584;5.932;2023-02-28T08:44:43;11.30;;;5.83;;
74528;SDS011;63009;52.584;5.932;2023-02-28T08:47:09;11.77;;;5.63;;
74528;SDS011;63009;52.584;5.932;2023-02-28T08:49:34;10.93;;;5.77;;
74528;SDS011;63009;52.584;5.932;2023-02-28T08:51:59;11.93;;;5.83;;
74528;SDS011;63009;52.584;5.932;2023-02-28T08:54:25;10.23;;;5.63;;
74528;SDS011;63009;52.584;5.932;2023-02-28T08:56:50;9.50;;;4.90;;
74528;SDS011;63009;52.584;5.932;2023-02-28T08:59:16;11.93;;;5.25;;
74528;SDS011;63009;52.584;5.932;2023-02-28T09:01:41;11.50;;;6.05;;
74528;SDS011;63009;52.584;5.932;2023-02-28T09:04:08;11.82;;;5.60;;
74528;SDS011;63009;52.584;5.932;2023-02-28T09:06:35;11.23;;;5.85;;
74528;SDS011;63009;52.584;5.932;2023-02-28T09:09:00;10.20;;;5.32;;
74528;SDS011;63009;52.584;5.932;2023-02-28T09:11:27;10.45;;;4.78;;
74528;SDS011;63009;52.584;5.932;2023-02-28T09:13:53;9.55;;;4.32;;
74528;SDS011;63009;52.584;5.932;2023-02-28T09:16:20;11.02;;;4.85;;
74528;SDS011;63009;52.584;5.932;2023-02-28T09:18:46;9.55;;;5.00;;
74528;SDS011;63009;52.584;5.932;2023-02-28T09:21:13;10.23;;;3.60;;
74528;SDS011;63009;52.584;5.932;2023-02-28T09:23:40;11.43;;;5.05;;
74528;SDS011;63009;52.584;5.932;2023-02-28T09:26:07;15.63;;;7.85;;
74528;SDS011;63009;52.584;5.932;2023-02-28T09:28:33;27.23;;;14.23;;
74528;SDS011;63009;52.584;5.932;2023-02-28T09:30:58;10.63;;;3.80;;
74528;SDS011;63009;52.584;5.932;2023-02-28T09:33:24;8.97;;;2.97;;
74528;SDS011;63009;52.584;5.932;2023-02-28T09:35:50;6.78;;;2.85;;
74528;SDS011;63009;52.584;5.932;2023-02-28T09:38:22;8.52;;;3.35;;
74528;SDS011;63009;52.584;5.932;2023-02-28T09:43:12;8.00;;;3.07;;
74528;SDS011;63009;52.584;5.932;2023-02-28T09:45:42;8.98;;;4.43;;
74528;SDS011;63009;52.584;5.932;2023-02-28T09:48:18;8.10;;;3.33;;
74528;SDS011;63009;52.584;5.932;2023-02-28T09:50:48;8.65;;;3.42;;
74528;SDS011;63009;52.584;5.932;2023-02-28T09:55:53;9.00;;;4.90;;
74528;SDS011;63009;52.584;5.932;2023-02-28T09:58:31;8.75;;;3.33;;
74528;SDS011;63009;52.584;5.932;2023-02-28T10:01:09;9.52;;;4.10;;
74528;SDS011;63009;52.584;5.932;2023-02-28T10:03:46;7.70;;;3.15;;
74528;SDS011;63009;52.584;5.932;2023-02-28T10:06:36;7.82;;;3.40;;
74528;SDS011;63009;52.584;5.932;2023-02-28T10:11:43;8.35;;;2.95;;
74528;SDS011;63009;52.584;5.932;2023-02-28T10:14:12;12.32;;;3.20;;
74528;SDS011;63009;52.584;5.932;2023-02-28T10:22:15;9.88;;;3.65;;
74528;SDS011;63009;52.584;5.932;2023-02-28T10:24:45;10.57;;;3.88;;
74528;SDS011;63009;52.584;5.932;2023-02-28T10:27:20;9.75;;;3.33;;
74528;SDS011;63009;52.584;5.932;2023-02-28T10:29:48;9.20;;;4.10;;
74528;SDS011;63009;52.584;5.932;2023-02-28T10:32:16;7.63;;;2.60;;
74528;SDS011;63009;52.584;5.932;2023-02-28T10:34:42;6.65;;;2.88;;
74528;SDS011;63009;52.584;5.932;2023-02-28T10:37:08;7.63;;;2.47;;
74528;SDS011;63009;52.584;5.932;2023-02-28T10:39:44;14.50;;;6.28;;
74528;SDS011;63009;52.584;5.932;2023-02-28T10:42:18;6.03;;;2.22;;
74528;SDS011;63009;52.584;5.932;2023-02-28T10:45:04;6.82;;;2.13;;
74528;SDS011;63009;52.584;5.932;2023-02-28T10:47:54;5.32;;;1.85;;
74528;SDS011;63009;52.584;5.932;2023-02-28T10:58:46;9.48;;;3.75;;
74528;SDS011;63009;52.584;5.932;2023-02-28T11:01:15;6.82;;;2.47;;
74528;SDS011;63009;52.584;5.932;2023-02-28T11:03:59;5.22;;;2.00;;
74528;SDS011;63009;52.584;5.932;2023-02-28T11:06:26;6.32;;;2.00;;
74528;SDS011;63009;52.584;5.932;2023-02-28T11:08:55;6.80;;;1.98;;
74528;SDS011;63009;52.584;5.932;2023-02-28T11:13:51;9.00;;;3.78;;
74528;SDS011;63009;52.584;5.932;2023-02-28T11:16:19;7.28;;;2.55;;
74528;SDS011;63009;52.584;5.932;2023-02-28T11:18:49;7.25;;;3.08;;
74528;SDS011;63009;52.584;5.932;2023-02-28T11:21:25;7.90;;;3.40;;
74528;SDS011;63009;52.584;5.932;2023-02-28T11:23:56;6.43;;;2.28;;
74528;SDS011;63009;52.584;5.932;2023-02-28T11:29:25;6.38;;;2.40;;
74528;SDS011;63009;52.584;5.932;2023-02-28T11:36:54;6.82;;;2.10;;
74528;SDS011;63009;52.584;5.932;2023-02-28T11:41:57;6.07;;;2.10;;
74528;SDS011;63009;52.584;5.932;2023-02-28T11:47:32;8.88;;;2.33;;
74528;SDS011;63009;52.584;5.932;2023-02-28T11:53:11;6.97;;;2.65;;
74528;SDS011;63009;52.584;5.932;2023-02-28T11:55:59;6.93;;;2.30;;
74528;SDS011;63009;52.584;5.932;2023-02-28T11:58:42;5.85;;;2.08;;
74528;SDS011;63009;52.584;5.932;2023-02-28T12:06:49;5.97;;;2.20;;
74528;SDS011;63009;52.584;5.932;2023-02-28T12:14:57;4.77;;;1.90;;
74528;SDS011;63009;52.584;5.932;2023-02-28T12:20:54;5.32;;;1.65;;
74528;SDS011;63009;52.584;5.932;2023-02-28T12:26:31;6.18;;;2.00;;
74528;SDS011;63009;52.584;5.932;2023-02-28T12:29:04;6.50;;;2.08;;
74528;SDS011;63009;52.584;5.932;2023-02-28T12:31:42;4.65;;;1.90;;
74528;SDS011;63009;52.584;5.932;2023-02-28T12:34:16;6.63;;;2.10;;
74528;SDS011;63009;52.584;5.932;2023-02-28T12:36:48;6.20;;;2.00;;
74528;SDS011;63009;52.584;5.932;2023-02-28T12:39:18;6.80;;;1.88;;
74528;SDS011;63009;52.584;5.932;2023-02-28T12:41:58;7.32;;;2.20;;
74528;SDS011;63009;52.584;5.932;2023-02-28T12:45:15;6.57;;;2.08;;
74528;SDS011;63009;52.584;5.932;2023-02-28T12:47:19;6.30;;;2.17;;
74528;SDS011;63009;52.584;5.932;2023-02-28T12:52:13;5.65;;;2.05;;
74528;SDS011;63009;52.584;5.932;2023-02-28T12:54:44;5.32;;;1.70;;
74528;SDS011;63009;52.584;5.932;2023-02-28T12:57:31;5.97;;;1.80;;
74528;SDS011;63009;52.584;5.932;2023-02-28T12:59:58;6.63;;;2.08;;
74528;SDS011;63009;52.584;5.932;2023-02-28T13:05:23;6.25;;;2.15;;
74528;SDS011;63009;52.584;5.932;2023-02-28T13:10:56;4.93;;;1.73;;
74528;SDS011;63009;52.584;5.932;2023-02-28T13:13:25;8.88;;;3.17;;
74528;SDS011;63009;52.584;5.932;2023-02-28T13:16:02;5.47;;;1.92;;
74528;SDS011;63009;52.584;5.932;2023-02-28T13:18:45;6.75;;;2.20;;
74528;SDS011;63009;52.584;5.932;2023-02-28T13:21:28;6.15;;;2.00;;
74528;SDS011;63009;52.584;5.932;2023-02-28T13:26:22;6.35;;;2.28;;
74528;SDS011;63009;52.584;5.932;2023-02-28T13:31:13;5.97;;;2.03;;
74528;SDS011;63009;52.584;5.932;2023-02-28T13:38:39;7.63;;;2.38;;
74528;SDS011;63009;52.584;5.932;2023-02-28T13:44:00;7.55;;;2.35;;
74528;SDS011;63009;52.584;5.932;2023-02-28T13:46:36;6.45;;;1.90;;
74528;SDS011;63009;52.584;5.932;2023-02-28T13:51:48;5.73;;;1.70;;
74528;SDS011;63009;52.584;5.932;2023-02-28T13:59:32;5.57;;;1.70;;
74528;SDS011;63009;52.584;5.932;2023-02-28T14:07:32;6.40;;;1.90;;
74528;SDS011;63009;52.584;5.932;2023-02-28T14:10:04;7.28;;;2.25;;
74528;SDS011;63009;52.584;5.932;2023-02-28T14:12:53;6.00;;;2.20;;
74528;SDS011;63009;52.584;5.932;2023-02-28T14:15:28;6.38;;;2.00;;
74528;SDS011;63009;52.584;5.932;2023-02-28T14:17:55;6.35;;;2.30;;
74528;SDS011;63009;52.584;5.932;2023-02-28T14:20:22;5.72;;;2.00;;
74528;SDS011;63009;52.584;5.932;2023-02-28T14:22:58;7.13;;;2.33;;
74528;SDS011;63009;52.584;5.932;2023-02-28T14:25:44;6.13;;;2.20;;
74528;SDS011;63009;52.584;5.932;2023-02-28T14:28:36;6.20;;;2.13;;
74528;SDS011;63009;52.584;5.932;2023-02-28T14:31:40;6.47;;;2.17;;
74528;SDS011;63009;52.584;5.932;2023-02-28T14:36:44;8.32;;;2.60;;
74528;SDS011;63009;52.584;5.932;2023-02-28T14:39:14;5.78;;;2.20;;
74528;SDS011;63009;52.584;5.932;2023-02-28T14:41:41;6.45;;;1.98;;
74528;SDS011;63009;52.584;5.932;2023-02-28T14:44:18;6.05;;;2.20;;
74528;SDS011;63009;52.584;5.932;2023-02-28T14:46:46;5.60;;;2.13;;
74528;SDS011;63009;52.584;5.932;2023-02-28T14:49:16;6.57;;;1.92;;
74528;SDS011;63009;52.584;5.932;2023-02-28T14:51:48;7.18;;;2.30;;
74528;SDS011;63009;52.584;5.932;2023-02-28T14:54:16;6.38;;;2.20;;
74528;SDS011;63009;52.584;5.932;2023-02-28T14:56:49;6.28;;;2.25;;
74528;SDS011;63009;52.584;5.932;2023-02-28T14:59:23;6.30;;;2.22;;
74528;SDS011;63009;52.584;5.932;2023-02-28T15:04:56;6.07;;;2.45;;
74528;SDS011;63009;52.584;5.932;2023-02-28T15:07:23;7.18;;;2.47;;
74528;SDS011;63009;52.584;5.932;2023-02-28T15:12:41;7.60;;;2.50;;
74528;SDS011;63009;52.584;5.932;2023-02-28T15:15:21;7.93;;;2.08;;
74528;SDS011;63009;52.584;5.932;2023-02-28T15:17:52;5.80;;;2.15;;
74528;SDS011;63009;52.584;5.932;2023-02-28T15:20:21;6.78;;;2.80;;
74528;SDS011;63009;52.584;5.932;2023-02-28T15:22:48;6.00;;;2.20;;
74528;SDS011;63009;52.584;5.932;2023-02-28T15:25:18;7.43;;;2.13;;
74528;SDS011;63009;52.584;5.932;2023-02-28T15:27:47;6.75;;;2.33;;
74528;SDS011;63009;52.584;5.932;2023-02-28T15:30:16;8.45;;;3.58;;
74528;SDS011;63009;52.584;5.932;2023-02-28T15:32:44;6.90;;;3.10;;
74528;SDS011;63009;52.584;5.932;2023-02-28T15:35:27;6.65;;;2.30;;
74528;SDS011;63009;52.584;5.932;2023-02-28T15:37:55;8.32;;;2.20;;
74528;SDS011;63009;52.584;5.932;2023-02-28T15:45:28;5.78;;;2.47;;
74528;SDS011;63009;52.584;5.932;2023-02-28T15:47:59;7.82;;;2.90;;
74528;SDS011;63009;52.584;5.932;2023-02-28T15:50:27;7.15;;;2.58;;
74528;SDS011;63009;52.584;5.932;2023-02-28T15:52:53;7.47;;;2.53;;
74528;SDS011;63009;52.584;5.932;2023-02-28T15:55:19;7.00;;;2.73;;
74528;SDS011;63009;52.584;5.932;2023-02-28T15:57:48;7.32;;;2.78;;
74528;SDS011;63009;52.584;5.932;2023-02-28T16:00:21;8.15;;;2.83;;
74528;SDS011;63009;52.584;5.932;2023-02-28T16:02:48;7.13;;;3.03;;
74528;SDS011;63009;52.584;5.932;2023-02-28T16:05:24;6.95;;;2.70;;
74528;SDS011;63009;52.584;5.932;2023-02-28T16:08:00;7.45;;;2.50;;
74528;SDS011;63009;52.584;5.932;2023-02-28T16:10:27;7.93;;;3.53;;
74528;SDS011;63009;52.584;5.932;2023-02-28T16:12:54;7.95;;;3.33;;
74528;SDS011;63009;52.584;5.932;2023-02-28T16:15:22;7.78;;;3.35;;
74528;SDS011;63009;52.584;5.932;2023-02-28T16:17:51;8.50;;;2.97;;
74528;SDS011;63009;52.584;5.932;2023-02-28T16:20:21;7.15;;;2.90;;
74528;SDS011;63009;52.584;5.932;2023-02-28T16:22:49;8.20;;;3.35;;
74528;SDS011;63009;52.584;5.932;2023-02-28T16:25:15;9.52;;;3.63;;
74528;SDS011;63009;52.584;5.932;2023-02-28T16:27:43;8.63;;;3.50;;
74528;SDS011;63009;52.584;5.932;2023-02-28T16:30:18;6.75;;;3.08;;
74528;SDS011;63009;52.584;5.932;2023-02-28T16:32:46;6.63;;;2.85;;
74528;SDS011;63009;52.584;5.932;2023-02-28T16:35:12;8.15;;;2.92;;
74528;SDS011;63009;52.584;5.932;2023-02-28T16:37:38;8.73;;;3.40;;
74528;SDS011;63009;52.584;5.932;2023-02-28T16:40:04;7.57;;;3.10;;
74528;SDS011;63009;52.584;5.932;2023-02-28T16:42:30;8.55;;;3.80;;
74528;SDS011;63009;52.584;5.932;2023-02-28T16:44:56;7.63;;;2.95;;
74528;SDS011;63009;52.584;5.932;2023-02-28T16:47:22;8.48;;;3.50;;
74528;SDS011;63009;52.584;5.932;2023-02-28T16:49:48;7.75;;;3.63;;
74528;SDS011;63009;52.584;5.932;2023-02-28T16:52:14;9.37;;;3.43;;
74528;SDS011;63009;52.584;5.932;2023-02-28T16:54:39;9.32;;;3.25;;
74528;SDS011;63009;52.584;5.932;2023-02-28T16:57:07;8.60;;;3.30;;
74528;SDS011;63009;52.584;5.932;2023-02-28T16:59:44;8.05;;;3.13;;
74528;SDS011;63009;52.584;5.932;2023-02-28T17:02:10;8.25;;;3.63;;
74528;SDS011;63009;52.584;5.932;2023-02-28T17:04:37;8.20;;;3.83;;
74528;SDS011;63009;52.584;5.932;2023-02-28T17:07:03;7.77;;;3.37;;